Time;durP1;ratioP1;P1;durP2;ratioP2;P2;SDS_P1;SDS_P2;PMS_P1;PMS_P2;Temp;Humidity;BMP_temperature;BMP_pressure;BME280_temperature;BME280_humidity;BME280_pressure;Samples;Min_cycle;Max_cycle;Signal;HPM_P1;HPM_P2
2022/03/24 00:00:07;;;;;;;30.77;26.98;;;;;;;6.93;64.83;102996.25;5053169;28;20021;-35
2022/03/24 00:02:32;;;;;;;32.85;26.83;;;;;;;6.81;64.93;102983.19;5052909;28;20029;-35
2022/03/24 00:04:57;;;;;;;31.73;26.43;;;;;;;6.74;64.08;102992.88;5052682;28;20458;-35
2022/03/24 00:07:23;;;;;;;35.47;27.73;;;;;;;6.69;64.40;103001.41;5052668;28;20313;-35
2022/03/24 00:09:49;;;;;;;;;;;;;;;6.86;62.43;102988.94;5053794;28;20455;-35
2022/03/24 00:12:16;;;;;;;32.55;26.98;;;;;;;6.67;64.36;102995.31;5053123;28;19953;-35
2022/03/24 00:14:42;;;;;;;31.15;27.27;;;;;;;6.61;64.72;102993.25;5053031;28;20064;-35
2022/03/24 00:17:07;;;;;;;32.58;26.58;;;;;;;6.72;65.03;102990.31;5052616;28;20418;-35
2022/03/24 00:19:33;;;;;;;34.33;27.77;;;;;;;6.66;64.64;102991.78;5052939;28;20424;-35
2022/03/24 00:21:58;;;;;;;31.60;28.20;;;;;;;6.62;64.10;102979.63;5052946;28;20033;-35
2022/03/24 00:24:24;;;;;;;37.47;27.23;;;;;;;6.49;65.48;102979.19;5053052;28;20461;-35
2022/03/24 00:26:49;;;;;;;31.00;27.65;;;;;;;6.49;64.90;102979.19;5052517;28;20029;-35
2022/03/24 00:29:14;;;;;;;33.20;27.50;;;;;;;6.50;64.52;102980.03;5052153;28;20025;-35
2022/03/24 00:31:40;;;;;;;35.60;28.57;;;;;;;6.43;65.84;102977.91;5052836;28;20024;-35
2022/03/24 00:34:06;;;;;;;30.55;26.73;;;;;;;6.49;65.75;102981.00;5052400;28;20117;-35
2022/03/24 00:36:31;;;;;;;32.00;26.80;;;;;;;6.40;64.15;102970.19;5053149;28;20065;-35
2022/03/24 00:38:57;;;;;;;32.63;27.48;;;;;;;6.32;64.87;102978.16;5052891;28;20115;-35
2022/03/24 00:41:23;;;;;;;33.43;26.87;;;;;;;6.30;65.47;102971.25;5052875;28;20033;-35
2022/03/24 00:43:48;;;;;;;31.05;26.98;;;;;;;6.25;66.34;102976.22;5052341;28;20029;-35
2022/03/24 00:46:22;;;;;;;30.92;27.10;;;;;;;6.21;65.94;102966.78;5052831;28;20044;-35
2022/03/24 00:48:49;;;;;;;32.67;27.50;;;;;;;6.21;65.66;102981.03;5056067;28;20071;-35
2022/03/24 00:51:15;;;;;;;33.05;27.58;;;;;;;6.17;66.32;102961.69;5056680;28;20045;-35
2022/03/24 00:53:41;;;;;;;;;;;;;;;6.40;64.18;102970.19;5054629;28;20037;-35
2022/03/24 00:56:06;;;;;;;32.78;27.90;;;;;;;6.13;66.37;102962.13;5055682;28;19917;-35
2022/03/24 00:58:31;;;;;;;35.93;29.03;;;;;;;6.33;66.73;102971.75;5055822;28;20060;-35
2022/03/24 01:00:57;;;;;;;33.97;27.77;;;;;;;6.19;67.08;102951.63;5054448;28;20496;-35
2022/03/24 01:03:23;;;;;;;;;;;;;;;6.49;64.70;102978.31;5054881;28;20025;-35
2022/03/24 01:05:48;;;;;;;33.63;28.50;;;;;;;6.36;67.14;102970.63;5056476;28;19933;-35
2022/03/24 01:08:16;;;;;;;35.37;27.83;;;;;;;6.24;66.62;102961.91;5055962;28;20029;-35
2022/03/24 01:10:42;;;;;;;33.47;29.25;;;;;;;6.19;67.67;102964.22;5055790;28;20389;-35
2022/03/24 01:13:08;;;;;;;31.02;26.80;;;;;;;6.07;67.60;102952.84;5055556;28;20039;-35
2022/03/24 01:15:34;;;;;;;35.90;28.27;;;;;;;6.09;67.74;102960.75;5056007;28;20112;-35
2022/03/24 01:18:00;;;;;;;33.63;28.08;;;;;;;6.08;67.20;102964.44;5054260;28;20045;-35
2022/03/24 01:20:27;;;;;;;33.42;27.48;;;;;;;6.21;67.68;102964.94;5055905;28;20029;-35
2022/03/24 01:22:53;;;;;;;32.85;26.77;;;;;;;6.19;67.92;102966.91;5054986;28;20580;-35
2022/03/24 01:25:18;;;;;;;34.22;27.63;;;;;;;6.18;68.56;102963.38;5055382;28;20057;-35
2022/03/24 01:27:44;;;;;;;32.73;27.57;;;;;;;6.03;68.33;102940.69;5054921;28;20115;-35
2022/03/24 01:30:10;;;;;;;30.45;26.77;;;;;;;6.17;68.52;102967.06;5055226;28;20120;-35
2022/03/24 01:32:36;;;;;;;36.65;28.25;;;;;;;6.18;68.06;102963.38;5055094;28;20436;-35
2022/03/24 01:35:03;;;;;;;31.27;26.70;;;;;;;6.07;68.24;102966.28;5055156;28;20048;-35
2022/03/24 01:37:29;;;;;;;29.75;26.35;;;;;;;6.09;68.76;102955.38;5054984;28;20029;-35
2022/03/24 01:39:54;;;;;;;33.38;27.23;;;;;;;5.99;69.34;102954.56;5054764;28;20040;-35
2022/03/24 01:42:20;;;;;;;34.77;27.00;;;;;;;5.92;68.72;102943.59;5054990;28;20037;-35
2022/03/24 01:44:47;;;;;;;37.20;28.13;;;;;;;5.82;70.87;102942.78;5055514;28;20112;-35
2022/03/24 01:47:13;;;;;;;31.67;27.65;;;;;;;5.92;69.89;102948.97;5053397;28;20283;-35
2022/03/24 01:49:41;;;;;;;31.48;27.10;;;;;;;5.83;70.22;102939.91;5054480;28;20028;-35
2022/03/24 01:52:09;;;;;;;30.27;25.77;;;;;;;5.69;69.52;102941.25;5055275;28;20054;-35
2022/03/24 01:54:38;;;;;;;32.35;27.25;;;;;;;5.76;69.67;102935.28;5055256;28;20028;-35
2022/03/24 01:57:05;;;;;;;31.20;27.00;;;;;;;5.65;69.75;102925.59;5054756;28;20475;-35
2022/03/24 01:59:31;;;;;;;31.08;26.60;;;;;;;5.49;68.98;102915.47;5053646;28;20029;-35
2022/03/24 02:01:57;;;;;;;30.52;25.45;;;;;;;5.76;70.32;102932.59;5054929;28;20404;-35
2022/03/24 02:04:23;;;;;;;30.92;26.88;;;;;;;5.78;70.02;102919.88;5054438;28;20112;-35
2022/03/24 02:06:48;;;;;;;32.25;27.42;;;;;;;5.78;70.29;102928.78;5054614;28;20043;-35
2022/03/24 02:09:15;;;;;;;31.63;26.85;;;;;;;5.76;70.45;102932.59;5054487;28;20021;-35
2022/03/24 02:11:41;;;;;;;33.03;26.75;;;;;;;5.65;69.93;102920.22;5054457;28;20115;-35
2022/03/24 02:14:07;;;;;;;;;;;;;;;5.85;67.99;102929.88;5054876;28;20036;-35
2022/03/24 02:16:35;;;;;;;33.70;27.48;;;;;;;5.68;70.44;102930.66;5053991;28;20295;-35
2022/03/24 02:19:17;;;;;;;33.15;26.48;;;;;;;5.67;70.19;102928.97;5054349;28;20111;-35
2022/03/24 02:21:44;;;;;;;30.20;25.85;;;;;;;5.69;70.39;102935.88;5054582;28;20025;-36
2022/03/24 02:24:12;;;;;;;30.38;27.10;;;;;;;5.64;70.75;102921.22;5054106;28;20025;-35
2022/03/24 02:26:40;;;;;;;32.13;26.85;;;;;;;5.60;69.29;102931.41;5054259;28;20066;-35
2022/03/24 02:29:06;;;;;;;33.83;27.13;;;;;;;5.53;70.89;102927.63;5053957;28;20119;-35
2022/03/24 02:31:38;;;;;;;33.97;27.80;;;;;;;5.53;70.55;102916.88;5054158;28;20033;-35
2022/03/24 02:35:06;;;;;;;34.28;26.02;;;;;;;5.58;70.50;102921.81;5054041;28;20039;-35
2022/03/24 02:37:02;;;;;;;32.75;26.77;;;;;;;5.67;70.64;102926.31;5049012;28;20062;-35
2022/03/24 02:39:28;;;;;;;35.05;26.80;;;;;;;5.60;70.60;102920.66;5053635;28;20473;-35
2022/03/24 02:41:58;;;;;;;31.73;26.25;;;;;;;5.58;70.87;102924.50;5053908;28;20076;-35
2022/03/24 02:44:26;;;;;;;31.77;27.70;;;;;;;5.49;70.96;102917.31;5053594;28;20029;-35
2022/03/24 02:46:53;;;;;;;33.55;26.70;;;;;;;5.42;70.71;102912.56;5054057;28;20444;-35
2022/03/24 02:49:24;;;;;;;31.27;26.48;;;;;;;5.45;70.68;102908.72;5053820;28;20029;-35
2022/03/24 02:51:54;;;;;;;34.55;28.00;;;;;;;5.38;71.19;102924.56;5053477;28;20033;-35
2022/03/24 02:54:21;;;;;;;32.05;27.60;;;;;;;5.31;70.06;102922.59;5054061;28;20461;-35
2022/03/24 02:56:48;;;;;;;30.88;26.73;;;;;;;5.24;70.60;102922.34;5054081;28;20049;-35
2022/03/24 02:59:14;;;;;;;36.58;29.23;;;;;;;5.08;71.85;102914.06;5053491;28;20039;-35
2022/03/24 03:01:42;;;;;;;30.33;26.70;;;;;;;5.28;71.59;102926.44;5053516;28;20029;-35
2022/03/24 03:04:09;;;;;;;34.33;28.00;;;;;;;5.21;72.40;102925.31;5053836;28;20028;-35
2022/03/24 03:06:35;;;;;;;33.67;26.52;;;;;;;5.25;71.52;102924.03;5053857;28;20067;-35
2022/03/24 03:09:02;;;;;;;35.90;28.38;;;;;;;5.19;71.73;102924.63;5052540;28;20109;-35
2022/03/24 03:11:32;;;;;;;32.10;28.20;;;;;;;5.06;72.64;102926.75;5052999;28;20084;-35
2022/03/24 03:14:00;;;;;;;32.25;27.67;;;;;;;4.98;73.64;102926.63;5053243;28;20068;-35
2022/03/24 03:16:26;;;;;;;32.42;26.75;;;;;;;5.09;72.82;102924.63;5053456;28;20071;-35
2022/03/24 03:18:51;;;;;;;32.65;27.98;;;;;;;5.06;72.54;102930.28;5053260;28;20493;-35
2022/03/24 03:21:17;;;;;;;31.70;27.38;;;;;;;5.01;72.71;102923.66;5053477;28;20067;-35
2022/03/24 03:23:44;;;;;;;31.65;27.25;;;;;;;4.89;72.53;102910.41;5053353;28;20047;-35
2022/03/24 03:26:17;;;;;;;34.38;27.83;;;;;;;4.86;72.39;102925.94;5053627;28;20025;-35
2022/03/24 03:28:42;;;;;;;34.40;27.30;;;;;;;4.86;72.73;102917.88;5053484;28;20025;-35
2022/03/24 03:31:08;;;;;;;34.72;27.52;;;;;;;4.74;72.22;102914.53;5053315;28;20442;-35
2022/03/24 03:33:34;;;;;;;32.53;27.23;;;;;;;4.68;72.34;102927.63;5053000;28;20036;-35
2022/03/24 03:36:00;;;;;;;34.65;27.60;;;;;;;4.72;73.18;102929.88;5052986;28;20048;-35
2022/03/24 03:38:26;;;;;;;34.47;26.88;;;;;;;4.72;72.68;102926.38;5052648;28;20021;-35
2022/03/24 03:40:56;;;;;;;30.40;26.02;;;;;;;4.64;73.68;102919.06;5052540;28;20469;-35
2022/03/24 03:43:22;;;;;;;33.00;26.83;;;;;;;4.70;73.18;102921.16;5052932;28;20067;-35
2022/03/24 03:45:48;;;;;;;33.40;27.30;;;;;;;4.79;73.81;102927.50;5053857;28;20029;-35
2022/03/24 03:48:13;;;;;;;32.25;27.17;;;;;;;4.71;73.47;102927.34;5052785;28;20527;-35
2022/03/24 03:50:41;;;;;;;30.57;26.67;;;;;;;4.57;73.17;102918.75;5053103;28;20032;-35
2022/03/24 03:53:08;;;;;;;31.67;26.52;;;;;;;4.68;73.29;102933.84;5052441;28;20406;-35
2022/03/24 03:55:33;;;;;;;33.25;27.13;;;;;;;4.55;72.60;102919.88;5052827;28;20547;-35
2022/03/24 03:57:59;;;;;;;33.85;27.88;;;;;;;4.60;73.49;102933.72;5052495;28;20036;-35
2022/03/24 04:03:08;;;;;;;33.60;27.05;;;;;;;4.50;72.85;102932.88;5053205;28;20105;-35
2022/03/24 04:05:33;;;;;;;34.50;28.63;;;;;;;4.46;73.71;102931.44;5053050;28;20028;-35
2022/03/24 04:08:03;;;;;;;33.60;26.27;;;;;;;4.32;73.89;102920.16;5052809;28;20087;-35
2022/03/24 04:10:30;;;;;;;33.08;27.05;;;;;;;4.30;74.41;102932.00;5052829;28;20266;-35
2022/03/24 04:12:56;;;;;;;34.95;27.65;;;;;;;4.36;74.73;102934.97;5052576;28;20132;-35
2022/03/24 04:15:22;;;;;;;32.83;27.27;;;;;;;4.15;73.26;102907.44;5052857;28;20025;-35
2022/03/24 04:17:48;;;;;;;33.88;28.15;;;;;;;4.22;73.55;102935.34;5053342;28;20021;-35
2022/03/24 04:20:15;;;;;;;35.97;29.52;;;;;;;4.18;73.91;102931.25;5054926;28;20025;-35
2022/03/24 04:22:40;;;;;;;38.90;28.33;;;;;;;4.20;74.28;102936.47;5056391;28;20033;-35
2022/03/24 04:25:06;;;;;;;36.07;27.33;;;;;;;4.13;74.11;102933.50;5056812;28;20066;-35
2022/03/24 04:27:31;;;;;;;33.90;27.55;;;;;;;4.13;74.15;102931.66;5056317;28;20250;-35
2022/03/24 04:29:57;;;;;;;36.43;27.60;;;;;;;4.11;73.68;102928.28;5056550;28;20056;-35
2022/03/24 04:32:22;;;;;;;31.03;26.30;;;;;;;4.00;72.43;102931.09;5056849;28;20037;-35
2022/03/24 04:34:48;;;;;;;31.98;27.38;;;;;;;4.04;73.95;102932.47;5056839;28;20024;-35
2022/03/24 04:37:15;;;;;;;38.17;28.23;;;;;;;4.03;75.14;102930.81;5056194;28;20078;-35
2022/03/24 04:39:40;;;;;;;30.80;26.58;;;;;;;4.01;74.55;102935.47;5056878;28;20032;-35
2022/03/24 04:42:06;;;;;;;33.55;26.30;;;;;;;4.04;74.63;102926.28;5056409;28;20029;-35
2022/03/24 04:44:32;;;;;;;35.35;26.30;;;;;;;4.02;74.92;102930.94;5056611;28;20048;-35
2022/03/24 04:46:58;;;;;;;31.70;26.55;;;;;;;4.02;75.42;102925.59;5056028;28;20457;-35
2022/03/24 04:49:23;;;;;;;35.22;27.25;;;;;;;3.98;75.41;102922.34;5055878;28;20029;-35
2022/03/24 04:51:49;;;;;;;32.57;26.63;;;;;;;4.00;74.65;102936.44;5056266;28;20040;-35
2022/03/24 04:54:14;;;;;;;31.03;26.87;;;;;;;3.92;75.25;102938.94;5056185;28;20029;-35
2022/03/24 04:56:40;;;;;;;31.20;25.65;;;;;;;3.92;74.92;102938.09;5056799;28;20049;-35
2022/03/24 04:59:05;;;;;;;29.97;25.97;;;;;;;3.81;74.32;102939.06;5055788;28;20393;-35
2022/03/24 05:01:31;;;;;;;30.77;25.07;;;;;;;3.77;74.11;102938.47;5056530;28;20029;-35
2022/03/24 05:03:56;;;;;;;30.50;25.15;;;;;;;3.72;74.69;102934.50;5055906;28;20541;-35
2022/03/24 05:06:21;;;;;;;31.17;24.80;;;;;;;3.75;75.45;102940.41;5055959;28;20036;-35
2022/03/24 05:08:47;;;;;;;31.00;25.97;;;;;;;3.70;75.64;102928.44;5055247;28;20025;-35
2022/03/24 05:11:12;;;;;;;30.97;25.43;;;;;;;3.70;76.26;102937.31;5055395;28;20030;-35
2022/03/24 05:13:37;;;;;;;28.23;24.60;;;;;;;3.65;74.53;102936.88;5055586;28;20068;-34
2022/03/24 05:16:03;;;;;;;29.47;25.03;;;;;;;3.55;76.17;102936.81;5055754;28;20027;-34
2022/03/24 05:18:28;;;;;;;33.38;25.77;;;;;;;3.63;75.64;102951.38;5056242;28;20063;-35
2022/03/24 05:20:54;;;;;;;33.20;27.17;;;;;;;3.63;75.65;102949.53;5055706;28;20495;-35
2022/03/24 05:23:19;;;;;;;29.83;25.70;;;;;;;3.64;76.05;102939.69;5055354;28;20036;-35
2022/03/24 05:25:47;;;;;;;34.43;27.07;;;;;;;3.53;75.31;102956.69;5054438;28;20037;-35
2022/03/24 05:28:13;;;;;;;31.52;24.90;;;;;;;3.53;76.33;102962.03;5055139;28;20056;-35
2022/03/24 05:30:39;;;;;;;32.50;25.73;;;;;;;3.42;75.58;102938.88;5054863;28;20072;-35
2022/03/24 05:33:05;;;;;;;29.50;25.17;;;;;;;3.53;76.43;102959.34;5054727;28;20025;-35
2022/03/24 05:35:35;;;;;;;31.08;25.58;;;;;;;3.43;75.35;102959.28;5055419;28;20527;-34
2022/03/24 05:38:04;;;;;;;29.70;25.38;;;;;;;3.34;73.34;102958.25;5055503;28;20033;-34
2022/03/24 05:40:29;;;;;;;32.33;25.23;;;;;;;3.39;74.40;102946.31;5055039;28;20040;-34
2022/03/24 05:42:55;;;;;;;31.13;25.65;;;;;;;3.33;76.11;102953.91;5055015;28;20040;-35
2022/03/24 05:45:20;;;;;;;31.13;24.80;;;;;;;3.30;75.30;102950.63;5055467;28;20110;-35
2022/03/24 05:47:46;;;;;;;32.27;25.33;;;;;;;3.29;75.90;102948.94;5054938;28;20072;-34
2022/03/24 05:50:12;;;;;;;31.90;25.33;;;;;;;3.27;75.00;102953.56;5054848;28;20431;-34
2022/03/24 05:52:38;;;;;;;30.27;25.17;;;;;;;3.34;76.66;102960.94;5054501;28;20159;-35
2022/03/24 05:55:04;;;;;;;33.00;26.50;;;;;;;3.37;76.48;102954.50;5053686;28;20127;-34
2022/03/24 05:57:29;;;;;;;36.33;27.23;;;;;;;3.40;76.78;102953.34;5054726;28;20043;-34
2022/03/24 05:59:54;;;;;;;31.27;25.37;;;;;;;3.48;76.89;102959.75;5054497;28;20113;-34
2022/03/24 06:02:20;;;;;;;32.13;26.03;;;;;;;3.47;76.36;102965.25;5054987;28;20052;-35
2022/03/24 06:04:47;;;;;;;30.92;25.45;;;;;;;3.49;76.70;102953.41;5054636;28;20420;-34
2022/03/24 06:07:14;;;;;;;32.95;26.30;;;;;;;3.54;76.97;102967.22;5054743;28;20074;-34
2022/03/24 06:09:39;;;;;;;35.08;27.35;;;;;;;3.57;76.37;102955.44;5054651;28;20117;-34
2022/03/24 06:12:08;;;;;;;32.17;26.03;;;;;;;3.79;76.79;102965.94;5054512;28;20112;-35
2022/03/24 06:14:35;;;;;;;34.80;26.70;;;;;;;3.83;76.57;102945.97;5055294;28;20025;-35
2022/03/24 06:17:01;;;;;;;32.78;26.05;;;;;;;4.01;76.37;102961.38;5055074;28;20025;-35
2022/03/24 06:19:27;;;;;;;38.38;26.70;;;;;;;4.12;76.46;102961.28;5054042;28;20098;-35
2022/03/24 06:21:52;;;;;;;31.77;25.92;;;;;;;4.13;74.62;102960.28;5054908;28;20064;-35
2022/03/24 06:24:17;;;;;;;32.23;25.37;;;;;;;4.18;75.17;102963.38;5053960;28;20104;-35
2022/03/24 06:26:43;;;;;;;35.17;26.97;;;;;;;4.22;75.65;102972.84;5054730;28;20104;-35
2022/03/24 06:29:11;;;;;;;32.00;25.15;;;;;;;4.22;75.08;102948.75;5054585;28;20465;-35
2022/03/24 06:31:37;;;;;;;33.03;26.10;;;;;;;4.39;75.79;102964.16;5054194;28;20028;-35
2022/03/24 06:34:02;;;;;;;35.60;27.25;;;;;;;4.45;75.23;102959.22;5054133;28;20036;-35
2022/03/24 06:36:28;;;;;;;31.07;27.10;;;;;;;4.34;75.61;102936.94;5053859;28;20478;-35
2022/03/24 06:38:53;;;;;;;30.70;24.60;;;;;;;4.65;75.02;102966.28;5054552;28;20201;-35
2022/03/24 06:41:19;;;;;;;31.27;24.92;;;;;;;4.74;76.18;102967.28;5053883;28;20124;-35
2022/03/24 06:43:46;;;;;;;34.63;26.77;;;;;;;4.65;74.81;102959.09;5053717;28;20027;-35
2022/03/24 06:46:12;;;;;;;33.50;26.88;;;;;;;4.83;75.73;102964.63;5054496;28;20056;-35
2022/03/24 06:48:37;;;;;;;32.00;26.17;;;;;;;4.90;76.31;102967.56;5053642;28;20124;-34
2022/03/24 06:51:04;;;;;;;34.30;26.03;;;;;;;5.07;75.77;102969.50;5054185;28;20047;-34
2022/03/24 06:53:30;;;;;;;33.22;25.13;;;;;;;5.22;76.01;102959.22;5053157;28;20053;-35
2022/03/24 06:55:55;;;;;;;30.70;24.88;;;;;;;5.31;75.54;102966.38;5053656;28;20149;-35
2022/03/24 06:58:22;;;;;;;28.47;24.13;;;;;;;5.39;74.03;102963.81;5054417;28;20044;-35
2022/03/24 07:00:48;;;;;;;28.98;23.00;;;;;;;5.42;74.55;102966.22;5053454;28;20476;-34
2022/03/24 07:03:13;;;;;;;26.15;22.33;;;;;;;5.42;73.68;102958.16;5053205;28;20029;-35
2022/03/24 07:05:38;;;;;;;27.42;22.70;;;;;;;5.53;74.97;102970.56;5053979;28;20529;-35
2022/03/24 07:08:04;;;;;;;30.70;23.70;;;;;;;5.54;73.97;102960.66;5052963;28;20029;-35
2022/03/24 07:10:30;;;;;;;28.63;24.02;;;;;;;5.65;72.77;102969.38;5053311;28;20039;-34
2022/03/24 07:12:56;;;;;;;28.75;23.75;;;;;;;5.71;73.20;102977.84;5052977;28;20035;-35
2022/03/24 07:15:22;;;;;;;26.20;22.50;;;;;;;5.79;72.81;102975.28;5053159;28;20036;-35
2022/03/24 07:17:48;;;;;;;28.40;22.30;;;;;;;5.84;73.71;102973.00;5053173;28;20080;-35
2022/03/24 07:20:14;;;;;;;32.58;26.55;;;;;;;5.82;72.94;102957.03;5053219;28;20061;-35
2022/03/24 07:22:39;;;;;;;29.33;24.67;;;;;;;6.04;73.50;102982.66;5053340;28;20044;-35
2022/03/24 07:25:07;;;;;;;32.17;25.52;;;;;;;6.08;72.33;102985.91;5052475;28;20054;-35
2022/03/24 07:27:33;;;;;;;31.30;24.40;;;;;;;6.00;71.76;102958.94;5053067;28;20047;-35
2022/03/24 07:29:58;;;;;;;32.78;25.35;;;;;;;6.24;72.73;102985.25;5052933;28;20079;-35
2022/03/24 07:32:24;;;;;;;26.83;21.83;;;;;;;6.36;72.83;102981.38;5053108;28;20029;-35
2022/03/24 07:34:50;;;;;;;24.92;21.35;;;;;;;6.43;73.00;102969.00;5053320;28;20027;-35
2022/03/24 07:37:15;;;;;;;28.65;23.77;;;;;;;6.56;71.75;102980.25;5052705;28;20029;-34
2022/03/24 07:39:41;;;;;;;32.17;24.60;;;;;;;6.70;71.56;102986.94;5053206;28;20033;-35
2022/03/24 07:42:07;;;;;;;28.70;22.67;;;;;;;6.79;71.45;102986.03;5052919;28;20325;-35
2022/03/24 07:44:32;;;;;;;28.70;22.17;;;;;;;6.91;70.84;102986.63;5053145;28;20283;-35
2022/03/24 07:46:58;;;;;;;27.23;21.87;;;;;;;6.93;70.32;102973.88;5051997;28;20159;-35
2022/03/24 07:49:23;;;;;;;25.27;21.13;;;;;;;7.09;69.99;102981.25;5051177;28;20037;-35
2022/03/24 07:51:49;;;;;;;27.43;21.53;;;;;;;7.19;68.49;102987.38;5053049;28;20025;-35
2022/03/24 07:54:14;;;;;;;30.17;22.20;;;;;;;7.29;68.16;102981.91;5054617;28;20027;-35
2022/03/24 07:56:40;;;;;;;27.53;21.97;;;;;;;7.36;68.18;102989.16;5059763;28;20049;-35
2022/03/24 07:59:06;;;;;;;25.17;22.35;;;;;;;7.49;67.69;102984.22;5058825;28;20024;-35
2022/03/24 08:01:34;;;;;;;24.05;21.45;;;;;;;7.51;68.32;102981.34;5059995;28;20068;-36
2022/03/24 08:04:02;;;;;;;26.40;22.50;;;;;;;7.60;68.84;102982.25;5059162;28;20107;-36
2022/03/24 08:06:29;;;;;;;25.55;21.83;;;;;;;7.75;68.00;102983.34;5059926;28;20098;-35
2022/03/24 08:08:55;;;;;;;31.35;22.48;;;;;;;7.94;66.74;102993.06;5059173;28;20064;-36
2022/03/24 08:11:25;;;;;;;;;;;;;;;8.10;67.47;102990.44;5059774;28;20033;-35
2022/03/24 08:13:53;;;;;;;26.80;21.98;;;;;;;8.24;66.30;102986.25;5058219;28;19909;-35
2022/03/24 08:16:20;;;;;;;28.33;22.45;;;;;;;8.37;65.54;102991.22;5059657;28;20147;-35
2022/03/24 08:18:45;;;;;;;28.92;22.00;;;;;;;8.54;65.53;102995.69;5059328;28;20104;-35
2022/03/24 08:21:11;;;;;;;27.90;20.40;;;;;;;8.52;64.21;102954.53;5060081;28;20131;-35
2022/03/24 08:23:37;;;;;;;30.35;22.30;;;;;;;8.79;64.94;102982.22;5058943;28;20025;-35
2022/03/24 08:26:02;;;;;;;26.63;21.52;;;;;;;8.93;61.53;102982.41;5059510;28;20174;-35
2022/03/24 08:28:28;;;;;;;26.60;21.10;;;;;;;9.12;63.13;102993.84;5058705;28;20029;-35
2022/03/24 08:30:53;;;;;;;24.47;20.33;;;;;;;9.29;61.28;102995.56;5058460;28;20286;-36
2022/03/24 08:33:18;;;;;;;28.73;21.80;;;;;;;9.41;61.42;102996.03;5059225;28;20033;-35
2022/03/24 08:35:44;;;;;;;27.27;21.63;;;;;;;9.50;61.92;102992.31;5058965;28;20048;-35
2022/03/24 08:38:10;;;;;;;24.50;20.60;;;;;;;9.57;61.55;102993.31;5058338;28;20517;-35
2022/03/24 08:40:35;;;;;;;;;;;;;;;9.74;63.10;103000.34;5059143;28;20778;-35
2022/03/24 08:43:01;;;;;;;23.85;19.63;;;;;;;9.87;59.73;103002.53;5059326;28;19909;-36
2022/03/24 08:45:26;;;;;;;29.27;22.02;;;;;;;9.99;58.78;102997.56;5058518;28;20040;-35
2022/03/24 08:47:53;;;;;;;25.55;20.27;;;;;;;10.14;54.84;102997.69;5058999;28;20025;-34
2022/03/24 08:50:19;;;;;;;24.50;19.40;;;;;;;10.19;54.79;102985.31;5059552;28;20495;-34
2022/03/24 08:52:45;;;;;;;26.42;20.00;;;;;;;10.53;53.30;103000.38;5059115;28;20044;-35
2022/03/24 08:55:13;;;;;;;24.02;20.98;;;;;;;10.82;52.14;102988.88;5058165;28;20091;-35
2022/03/24 08:57:39;;;;;;;25.25;19.70;;;;;;;10.95;51.48;102991.81;5059780;28;20049;-34
2022/03/24 09:00:12;;;;;;;22.13;19.23;;;;;;;11.17;50.14;102994.69;5059616;28;20098;-35
2022/03/24 09:02:40;;;;;;;24.05;20.08;;;;;;;11.34;48.53;102996.22;5059105;28;20029;-35
2022/03/24 09:05:05;;;;;;;22.35;19.00;;;;;;;11.43;52.39;102997.00;5058346;28;20032;-35
2022/03/24 09:07:31;;;;;;;21.38;18.58;;;;;;;11.60;51.71;102996.63;5054821;28;20466;-35
2022/03/24 09:09:56;;;;;;;23.30;19.40;;;;;;;11.68;50.09;102997.59;5056079;28;20033;-35
2022/03/24 09:12:23;;;;;;;24.03;19.97;;;;;;;11.81;52.36;103003.22;5056047;28;20029;-36
2022/03/24 09:14:48;;;;;;;24.15;20.10;;;;;;;11.88;49.83;102976.22;5055807;28;20025;-35
2022/03/24 09:17:20;;;;;;;22.35;18.08;;;;;;;12.06;49.49;102999.19;5055840;28;20075;-36
2022/03/24 09:19:46;;;;;;;23.33;18.75;;;;;;;12.09;48.01;102974.41;5054087;28;20036;-35
2022/03/24 09:22:11;;;;;;;22.00;18.00;;;;;;;12.39;46.24;102998.75;5055588;28;20021;-36
2022/03/24 09:24:36;;;;;;;22.67;19.03;;;;;;;12.63;47.80;102995.69;5056273;28;20373;-35
2022/03/24 09:27:03;;;;;;;21.13;18.98;;;;;;;12.79;46.41;102996.50;5054251;28;20025;-36
2022/03/24 09:29:30;;;;;;;24.02;17.55;;;;;;;12.82;46.54;102977.94;5055895;28;20136;-36
2022/03/24 09:31:55;;;;;;;21.08;18.85;;;;;;;13.13;45.66;103006.66;5055008;28;20033;-36
2022/03/24 09:34:20;;;;;;;20.23;17.35;;;;;;;13.05;47.28;103004.91;5055652;28;20485;-36
2022/03/24 09:36:46;;;;;;;19.88;15.90;;;;;;;13.24;43.79;102999.88;5055956;28;20450;-36
2022/03/24 09:39:12;;;;;;;15.77;13.90;;;;;;;13.43;39.29;102995.63;5056053;28;20033;-36
2022/03/24 09:41:40;;;;;;;15.85;14.15;;;;;;;13.60;38.86;103000.53;5056070;28;20107;-36
2022/03/24 09:44:07;;;;;;;17.65;15.10;;;;;;;13.73;39.92;103001.69;5055277;28;20096;-36
2022/03/24 09:46:33;;;;;;;18.75;15.57;;;;;;;13.83;39.51;102999.44;5054815;28;20112;-36
2022/03/24 09:48:59;;;;;;;18.85;15.85;;;;;;;13.89;39.67;103002.19;5055153;28;20115;-36
2022/03/24 09:51:25;;;;;;;;;;;;;;;14.03;43.72;102996.84;5055686;28;20428;-36
2022/03/24 09:53:51;;;;;;;18.77;15.27;;;;;;;14.17;42.89;102993.97;5054723;28;19909;-35
2022/03/24 09:56:17;;;;;;;16.67;14.88;;;;;;;14.23;40.70;102996.91;5054997;28;20094;-36
2022/03/24 09:58:44;;;;;;;18.60;16.23;;;;;;;14.15;40.15;102971.59;5055094;28;20029;-36
2022/03/24 10:01:10;;;;;;;19.17;15.63;;;;;;;14.37;41.22;103004.09;5054996;28;20024;-36
2022/03/24 10:03:36;;;;;;;18.45;15.13;;;;;;;14.38;39.49;102982.09;5055169;28;20143;-36
2022/03/24 10:06:07;;;;;;;16.45;14.75;;;;;;;14.58;40.04;103003.13;5054626;28;20036;-36
2022/03/24 10:08:34;;;;;;;15.10;13.40;;;;;;;14.67;36.50;102972.78;5055098;28;20133;-36
2022/03/24 10:11:01;;;;;;;14.52;13.10;;;;;;;15.03;34.40;102997.97;5054876;28;20067;-36
2022/03/24 10:13:55;;;;;;;14.50;12.63;;;;;;;15.15;37.07;102988.97;5054704;28;20025;-36
2022/03/24 10:16:32;;;;;;;13.43;11.90;;;;;;;15.30;32.59;102993.38;5054997;28;20021;-36
2022/03/24 10:19:15;;;;;;;12.38;11.07;;;;;;;15.39;33.45;102992.97;5054746;28;20041;-36
2022/03/24 10:21:47;;;;;;;12.57;11.27;;;;;;;15.44;31.97;102974.06;5054823;28;20029;-36
2022/03/24 10:24:19;;;;;;;13.00;11.70;;;;;;;15.53;29.82;102976.59;5055271;28;20024;-36
2022/03/24 10:26:48;;;;;;;14.90;11.35;;;;;;;15.45;30.88;102964.84;5054105;28;20025;-36
2022/03/24 10:29:21;;;;;;;13.48;12.15;;;;;;;15.61;29.53;102979.91;5054010;28;20024;-36
2022/03/24 10:32:02;;;;;;;12.52;11.10;;;;;;;15.70;31.41;102975.94;5055001;28;20032;-36
2022/03/24 10:34:50;;;;;;;15.45;11.77;;;;;;;15.75;33.80;102958.94;5053841;28;20120;-36
2022/03/24 10:37:18;;;;;;;14.30;12.40;;;;;;;15.95;30.45;102972.50;5055034;28;20375;-36
2022/03/24 10:40:06;;;;;;;21.80;12.27;;;;;;;15.89;29.36;102974.22;5069418;28;20055;-36
2022/03/24 10:42:33;;;;;;;14.90;12.90;;;;;;;15.96;29.18;102977.78;5054261;28;20056;-36
2022/03/24 10:45:18;;;;;;;14.90;11.77;;;;;;;16.02;29.99;102976.06;5054442;28;20122;-36
2022/03/24 10:48:00;;;;;;;15.98;12.90;;;;;;;16.13;31.92;102978.13;5053209;28;20021;-36
2022/03/24 10:50:39;;;;;;;18.88;12.60;;;;;;;16.13;30.70;102978.13;5053462;28;20036;-36
2022/03/24 10:53:16;;;;;;;16.27;12.77;;;;;;;16.15;31.01;102972.44;5053883;28;20021;-36
2022/03/24 10:55:51;;;;;;;13.35;11.57;;;;;;;16.34;32.40;102965.19;5053924;28;20029;-36
2022/03/24 10:58:44;;;;;;;15.85;12.73;;;;;;;16.46;30.77;102960.75;5054815;28;20048;-36
2022/03/24 11:01:14;;;;;;;13.98;12.57;;;;;;;16.36;29.13;102950.28;5011794;28;20049;-36
2022/03/24 11:03:40;;;;;;;13.32;11.85;;;;;;;16.56;29.20;102965.72;5011860;28;20398;-36
2022/03/24 11:06:19;;;;;;;12.63;10.40;;;;;;;16.54;29.38;102968.66;5012270;28;20127;-36
2022/03/24 11:08:52;;;;;;;12.45;9.63;;;;;;;16.68;27.96;102963.94;5012190;28;20034;-36
2022/03/24 11:11:17;;;;;;;11.88;9.55;;;;;;;16.54;27.08;102924.94;5012161;28;20038;-36
2022/03/24 11:13:44;;;;;;;;;;;;;;;16.87;30.38;102952.06;5012485;28;20034;-36
2022/03/24 11:16:11;;;;;;;13.75;10.60;;;;;;;16.90;28.09;102957.09;5012049;28;20023;-36
2022/03/24 11:18:37;;;;;;;13.85;11.52;;;;;;;16.80;27.52;102956.75;5011686;28;20049;-36